sensor_id;sensor_type;location;lat;lon;timestamp;pressure;altitude;pressure_sealevel;temperature;humidity
27864;BME280;15980;51.092;13.916;2023-04-03T00:08:13;99687.88;;;1.83;69.08
27864;BME280;15980;51.092;13.916;2023-04-03T00:18:13;99695.00;;;1.62;69.78
27864;BME280;15980;51.092;13.916;2023-04-03T00:28:14;99720.63;;;1.54;68.91
27864;BME280;15980;51.092;13.916;2023-04-03T00:38:15;99716.38;;;1.64;69.34
27864;BME280;15980;51.092;13.916;2023-04-03T00:48:31;99719.63;;;1.66;68.34
27864;BME280;15980;51.092;13.916;2023-04-03T00:58:46;99719.91;;;1.64;68.44
27864;BME280;15980;51.092;13.916;2023-04-03T01:08:49;99721.91;;;1.47;68.75
27864;BME280;15980;51.092;13.916;2023-04-03T01:18:50;99731.97;;;1.30;68.65
27864;BME280;15980;51.092;13.916;2023-04-03T01:28:54;99738.88;;;1.15;70.23
27864;BME280;15980;51.092;13.916;2023-04-03T01:38:55;99750.00;;;0.97;70.36
27864;BME280;15980;51.092;13.916;2023-04-03T01:48:55;99747.78;;;0.72;70.18
27864;BME280;15980;51.092;13.916;2023-04-03T01:58:55;99754.69;;;0.63;70.98
27864;BME280;15980;51.092;13.916;2023-04-03T02:08:56;99764.22;;;0.32;71.53
27864;BME280;15980;51.092;13.916;2023-04-03T02:18:56;99772.66;;;0.19;71.51
27864;BME280;15980;51.092;13.916;2023-04-03T02:28:56;99780.91;;;-0.05;72.70
27864;BME280;15980;51.092;13.916;2023-04-03T02:38:57;99789.91;;;-0.16;71.81
27864;BME280;15980;51.092;13.916;2023-04-03T02:48:57;99796.09;;;-0.32;73.09
27864;BME280;15980;51.092;13.916;2023-04-03T02:58:57;99806.47;;;-0.52;73.49
27864;BME280;15980;51.092;13.916;2023-04-03T03:08:58;99804.19;;;-0.60;74.48
27864;BME280;15980;51.092;13.916;2023-04-03T03:18:58;99817.94;;;-0.74;75.25
27864;BME280;15980;51.092;13.916;2023-04-03T03:28:58;99808.69;;;-0.78;75.80
27864;BME280;15980;51.092;13.916;2023-04-03T03:38:58;99815.72;;;-0.88;76.53
27864;BME280;15980;51.092;13.916;2023-04-03T03:48:59;99817.63;;;-1.01;77.27
27864;BME280;15980;51.092;13.916;2023-04-03T03:58:59;99819.56;;;-1.24;79.22
27864;BME280;15980;51.092;13.916;2023-04-03T04:08:59;99817.44;;;-1.22;79.00
27864;BME280;15980;51.092;13.916;2023-04-03T04:19:00;99835.59;;;-1.30;80.23
27864;BME280;15980;51.092;13.916;2023-04-03T04:29:00;99835.13;;;-1.38;80.79
27864;BME280;15980;51.092;13.916;2023-04-03T04:39:00;99850.22;;;-1.25;80.69
27864;BME280;15980;51.092;13.916;2023-04-03T04:49:01;99862.47;;;-0.83;79.88
27864;BME280;15980;51.092;13.916;2023-04-03T04:59:01;99870.03;;;-0.56;79.07
27864;BME280;15980;51.092;13.916;2023-04-03T05:09:01;99877.91;;;-0.67;78.32
27864;BME280;15980;51.092;13.916;2023-04-03T05:19:02;99880.66;;;-0.50;79.03
27864;BME280;15980;51.092;13.916;2023-04-03T05:29:02;99884.94;;;-0.66;78.66
27864;BME280;15980;51.092;13.916;2023-04-03T05:39:03;99888.66;;;-0.43;78.01
27864;BME280;15980;51.092;13.916;2023-04-03T05:49:04;99891.75;;;-0.06;77.42
27864;BME280;15980;51.092;13.916;2023-04-03T05:59:05;99902.19;;;0.02;76.63
27864;BME280;15980;51.092;13.916;2023-04-03T06:09:05;99897.97;;;0.23;77.40
27864;BME280;15980;51.092;13.916;2023-04-03T06:19:07;99915.81;;;0.41;75.42
27864;BME280;15980;51.092;13.916;2023-04-03T06:29:08;99910.38;;;0.07;75.30
27864;BME280;15980;51.092;13.916;2023-04-03T06:39:12;99915.53;;;0.54;75.68
27864;BME280;15980;51.092;13.916;2023-04-03T06:49:13;99920.09;;;0.53;74.47
27864;BME280;15980;51.092;13.916;2023-04-03T06:59:14;99930.97;;;0.75;75.14
27864;BME280;15980;51.092;13.916;2023-04-03T07:09:14;99946.53;;;0.85;73.93
27864;BME280;15980;51.092;13.916;2023-04-03T07:19:15;99959.31;;;1.06;73.38
27864;BME280;15980;51.092;13.916;2023-04-03T07:29:15;99960.44;;;1.10;72.55
27864;BME280;15980;51.092;13.916;2023-04-03T07:39:16;99980.09;;;1.22;71.49
27864;BME280;15980;51.092;13.916;2023-04-03T07:49:17;99976.06;;;1.42;70.67
27864;BME280;15980;51.092;13.916;2023-04-03T07:59:17;99985.81;;;1.43;70.71
27864;BME280;15980;51.092;13.916;2023-04-03T08:09:18;99980.66;;;1.63;70.23
27864;BME280;15980;51.092;13.916;2023-04-03T08:19:18;99993.97;;;1.86;68.14
27864;BME280;15980;51.092;13.916;2023-04-03T08:29:19;99985.16;;;2.45;66.33
27864;BME280;15980;51.092;13.916;2023-04-03T08:39:19;99995.03;;;3.15;62.58
27864;BME280;15980;51.092;13.916;2023-04-03T08:49:26;99993.53;;;3.34;62.10
27864;BME280;15980;51.092;13.916;2023-04-03T08:59:32;99994.03;;;3.31;60.25
27864;BME280;15980;51.092;13.916;2023-04-03T09:09:40;99980.97;;;4.33;61.45
27864;BME280;15980;51.092;13.916;2023-04-03T09:19:50;99977.50;;;4.58;58.96
27864;BME280;15980;51.092;13.916;2023-04-03T09:29:56;99977.25;;;4.95;56.43
27864;BME280;15980;51.092;13.916;2023-04-03T09:39:57;99979.69;;;5.07;55.60
27864;BME280;15980;51.092;13.916;2023-04-03T10:00:25;99983.72;;;4.43;53.28
27864;BME280;15980;51.092;13.916;2023-04-03T10:10:25;99971.50;;;4.40;52.41
27864;BME280;15980;51.092;13.916;2023-04-03T10:20:47;99962.28;;;4.57;52.68
27864;BME280;15980;51.092;13.916;2023-04-03T10:30:50;99957.41;;;4.89;50.01
27864;BME280;15980;51.092;13.916;2023-04-03T10:41:02;99959.03;;;5.31;47.44
27864;BME280;15980;51.092;13.916;2023-04-03T11:01:33;99952.78;;;5.10;47.23
27864;BME280;15980;51.092;13.916;2023-04-03T11:11:36;99949.22;;;5.10;46.25
27864;BME280;15980;51.092;13.916;2023-04-03T11:21:42;99933.94;;;5.49;46.52
27864;BME280;15980;51.092;13.916;2023-04-03T11:31:55;99936.28;;;5.81;44.15
27864;BME280;15980;51.092;13.916;2023-04-03T12:02:38;99929.94;;;4.86;46.62
27864;BME280;15980;51.092;13.916;2023-04-03T12:12:39;99933.47;;;5.07;45.01
27864;BME280;15980;51.092;13.916;2023-04-03T12:33:49;99916.97;;;5.78;44.10
27864;BME280;15980;51.092;13.916;2023-04-03T12:54:19;99924.94;;;5.54;45.99
27864;BME280;15980;51.092;13.916;2023-04-03T13:04:22;99920.66;;;5.32;45.72
27864;BME280;15980;51.092;13.916;2023-04-03T13:14:24;99921.47;;;5.13;47.90
27864;BME280;15980;51.092;13.916;2023-04-03T13:24:25;99919.63;;;4.83;46.42
27864;BME280;15980;51.092;13.916;2023-04-03T13:34:36;99908.06;;;5.52;46.68
27864;BME280;15980;51.092;13.916;2023-04-03T13:44:37;99913.84;;;5.20;45.39
27864;BME280;15980;51.092;13.916;2023-04-03T13:54:38;99912.81;;;4.70;48.21
27864;BME280;15980;51.092;13.916;2023-04-03T14:14:42;99897.81;;;5.28;46.29
27864;BME280;15980;51.092;13.916;2023-04-03T14:24:44;99914.44;;;4.66;46.61
27864;BME280;15980;51.092;13.916;2023-04-03T14:34:45;99908.72;;;4.47;46.70
27864;BME280;15980;51.092;13.916;2023-04-03T14:44:46;99908.41;;;4.23;47.42
27864;BME280;15980;51.092;13.916;2023-04-03T14:54:47;99897.31;;;4.35;47.72
27864;BME280;15980;51.092;13.916;2023-04-03T15:04:48;99903.03;;;4.59;46.62
27864;BME280;15980;51.092;13.916;2023-04-03T15:14:48;99895.63;;;4.19;47.05
27864;BME280;15980;51.092;13.916;2023-04-03T15:24:48;99892.50;;;3.64;48.69
27864;BME280;15980;51.092;13.916;2023-04-03T15:34:49;99899.53;;;3.60;48.97
27864;BME280;15980;51.092;13.916;2023-04-03T15:44:49;99890.94;;;3.89;49.08
27864;BME280;15980;51.092;13.916;2023-04-03T15:54:49;99907.78;;;3.33;50.59
27864;BME280;15980;51.092;13.916;2023-04-03T16:04:50;99908.91;;;3.42;49.46
27864;BME280;15980;51.092;13.916;2023-04-03T16:14:50;99891.69;;;3.69;49.72
27864;BME280;15980;51.092;13.916;2023-04-03T16:24:50;99901.69;;;3.58;49.60
27864;BME280;15980;51.092;13.916;2023-04-03T16:34:51;99904.31;;;3.43;49.18
27864;BME280;15980;51.092;13.916;2023-04-03T16:44:52;99912.19;;;3.02;49.07
27864;BME280;15980;51.092;13.916;2023-04-03T16:54:52;99916.41;;;2.51;49.01
27864;BME280;15980;51.092;13.916;2023-04-03T17:04:53;99916.06;;;2.42;49.18
27864;BME280;15980;51.092;13.916;2023-04-03T17:14:53;99913.28;;;2.32;50.53
27864;BME280;15980;51.092;13.916;2023-04-03T17:24:54;99912.72;;;2.30;52.00
27864;BME280;15980;51.092;13.916;2023-04-03T17:34:54;99918.66;;;2.05;52.18
27864;BME280;15980;51.092;13.916;2023-04-03T17:44:54;99914.69;;;1.86;53.03
27864;BME280;15980;51.092;13.916;2023-04-03T17:54:54;99918.47;;;1.85;53.64
27864;BME280;15980;51.092;13.916;2023-04-03T18:04:55;99921.66;;;1.60;54.94
27864;BME280;15980;51.092;13.916;2023-04-03T18:14:57;99918.78;;;1.45;56.02
27864;BME280;15980;51.092;13.916;2023-04-03T18:24:59;99922.09;;;1.13;57.14
27864;BME280;15980;51.092;13.916;2023-04-03T18:34:59;99917.22;;;0.93;57.15
27864;BME280;15980;51.092;13.916;2023-04-03T18:45:01;99909.31;;;0.87;58.02
27864;BME280;15980;51.092;13.916;2023-04-03T18:55:04;99904.78;;;0.92;58.22
27864;BME280;15980;51.092;13.916;2023-04-03T19:05:06;99911.28;;;1.13;57.92
27864;BME280;15980;51.092;13.916;2023-04-03T19:15:06;99912.50;;;1.22;56.78
27864;BME280;15980;51.092;13.916;2023-04-03T19:25:08;99910.66;;;1.45;56.75
27864;BME280;15980;51.092;13.916;2023-04-03T19:35:09;99902.03;;;1.48;57.82
27864;BME280;15980;51.092;13.916;2023-04-03T19:45:10;99904.69;;;1.43;58.82
27864;BME280;15980;51.092;13.916;2023-04-03T19:55:11;99899.97;;;1.55;57.95
27864;BME280;15980;51.092;13.916;2023-04-03T20:05:11;99891.34;;;1.58;57.43
27864;BME280;15980;51.092;13.916;2023-04-03T20:15:12;99894.41;;;1.67;58.91
27864;BME280;15980;51.092;13.916;2023-04-03T20:25:12;99888.06;;;1.56;59.51
27864;BME280;15980;51.092;13.916;2023-04-03T20:35:13;99884.28;;;1.57;60.16
27864;BME280;15980;51.092;13.916;2023-04-03T20:45:13;99877.56;;;1.60;61.34
27864;BME280;15980;51.092;13.916;2023-04-03T20:55:14;99883.03;;;1.65;62.17
27864;BME280;15980;51.092;13.916;2023-04-03T21:05:15;99882.66;;;1.56;62.16
27864;BME280;15980;51.092;13.916;2023-04-03T21:25:47;99858.38;;;1.61;65.81
27864;BME280;15980;51.092;13.916;2023-04-03T21:35:47;99863.31;;;1.69;66.86
27864;BME280;15980;51.092;13.916;2023-04-03T21:45:52;99861.94;;;1.67;67.60
27864;BME280;15980;51.092;13.916;2023-04-03T21:55:53;99860.06;;;1.67;68.33
27864;BME280;15980;51.092;13.916;2023-04-03T22:05:57;99848.00;;;1.75;69.05
27864;BME280;15980;51.092;13.916;2023-04-03T22:15:58;99853.06;;;1.71;70.33
27864;BME280;15980;51.092;13.916;2023-04-03T22:26:09;99845.78;;;1.72;71.03
27864;BME280;15980;51.092;13.916;2023-04-03T22:36:10;99836.66;;;1.78;71.27
27864;BME280;15980;51.092;13.916;2023-04-03T22:46:11;99830.19;;;1.79;71.77
27864;BME280;15980;51.092;13.916;2023-04-03T22:56:11;99838.03;;;1.80;72.11
27864;BME280;15980;51.092;13.916;2023-04-03T23:06:11;99828.16;;;1.69;72.42
27864;BME280;15980;51.092;13.916;2023-04-03T23:16:12;99832.63;;;1.80;72.92
27864;BME280;15980;51.092;13.916;2023-04-03T23:26:12;99828.28;;;1.79;73.15
27864;BME280;15980;51.092;13.916;2023-04-03T23:36:12;99837.78;;;1.82;73.09
27864;BME280;15980;51.092;13.916;2023-04-03T23:46:13;99834.50;;;1.80;73.74
27864;BME280;15980;51.092;13.916;2023-04-03T23:56:13;99825.59;;;1.79;73.56
